sensor_id;sensor_type;location;lat;lon;timestamp;temperature;humidity
23507;DHT22;11930;53.076;18.250;2022-07-23T00:01:37;17.30;99.90
23507;DHT22;11930;53.076;18.250;2022-07-23T00:04:03;17.20;99.90
23507;DHT22;11930;53.076;18.250;2022-07-23T00:06:29;17.20;99.90
23507;DHT22;11930;53.076;18.250;2022-07-23T00:08:54;17.20;99.90
23507;DHT22;11930;53.076;18.250;2022-07-23T00:11:21;17.10;99.90
23507;DHT22;11930;53.076;18.250;2022-07-23T00:13:48;17.10;99.90
23507;DHT22;11930;53.076;18.250;2022-07-23T00:16:14;17.00;99.90
23507;DHT22;11930;53.076;18.250;2022-07-23T00:18:40;17.00;99.90
23507;DHT22;11930;53.076;18.250;2022-07-23T00:21:07;16.90;99.90
23507;DHT22;11930;53.076;18.250;2022-07-23T00:23:33;16.80;99.90
23507;DHT22;11930;53.076;18.250;2022-07-23T00:25:59;16.80;99.90
23507;DHT22;11930;53.076;18.250;2022-07-23T00:28:25;16.80;99.90
23507;DHT22;11930;53.076;18.250;2022-07-23T00:30:51;16.80;99.90
23507;DHT22;11930;53.076;18.250;2022-07-23T00:33:17;16.70;99.90
23507;DHT22;11930;53.076;18.250;2022-07-23T00:35:43;16.70;99.90
23507;DHT22;11930;53.076;18.250;2022-07-23T00:38:09;16.70;99.90
23507;DHT22;11930;53.076;18.250;2022-07-23T00:40:37;16.70;99.90
23507;DHT22;11930;53.076;18.250;2022-07-23T00:43:04;16.60;99.90
23507;DHT22;11930;53.076;18.250;2022-07-23T00:45:30;16.60;99.90
23507;DHT22;11930;53.076;18.250;2022-07-23T00:47:57;16.60;99.90
23507;DHT22;11930;53.076;18.250;2022-07-23T00:50:23;16.60;99.90
23507;DHT22;11930;53.076;18.250;2022-07-23T00:52:49;16.50;99.90
23507;DHT22;11930;53.076;18.250;2022-07-23T00:55:16;16.50;99.90
23507;DHT22;11930;53.076;18.250;2022-07-23T00:57:42;16.50;99.90
23507;DHT22;11930;53.076;18.250;2022-07-23T01:00:11;16.50;99.90
23507;DHT22;11930;53.076;18.250;2022-07-23T01:02:39;16.40;99.90
23507;DHT22;11930;53.076;18.250;2022-07-23T01:05:05;16.40;99.90
23507;DHT22;11930;53.076;18.250;2022-07-23T01:07:31;16.30;99.90
23507;DHT22;11930;53.076;18.250;2022-07-23T01:09:59;16.30;99.90
23507;DHT22;11930;53.076;18.250;2022-07-23T01:12:25;16.20;99.90
23507;DHT22;11930;53.076;18.250;2022-07-23T01:14:58;16.20;99.90
23507;DHT22;11930;53.076;18.250;2022-07-23T01:17:25;16.20;99.90
23507;DHT22;11930;53.076;18.250;2022-07-23T01:19:51;16.10;99.90
23507;DHT22;11930;53.076;18.250;2022-07-23T01:22:19;16.10;99.90
23507;DHT22;11930;53.076;18.250;2022-07-23T01:24:46;16.10;99.90
23507;DHT22;11930;53.076;18.250;2022-07-23T01:27:12;16.10;99.90
23507;DHT22;11930;53.076;18.250;2022-07-23T01:29:39;16.00;99.90
23507;DHT22;11930;53.076;18.250;2022-07-23T01:32:14;16.00;99.90
23507;DHT22;11930;53.076;18.250;2022-07-23T01:34:40;16.00;99.90
23507;DHT22;11930;53.076;18.250;2022-07-23T01:37:06;15.90;99.90
23507;DHT22;11930;53.076;18.250;2022-07-23T01:39:32;15.80;99.90
23507;DHT22;11930;53.076;18.250;2022-07-23T01:41:58;15.90;99.90
23507;DHT22;11930;53.076;18.250;2022-07-23T01:44:26;15.90;99.90
23507;DHT22;11930;53.076;18.250;2022-07-23T01:46:52;15.90;99.90
23507;DHT22;11930;53.076;18.250;2022-07-23T01:49:19;15.80;99.90
23507;DHT22;11930;53.076;18.250;2022-07-23T01:52:05;15.80;99.90
23507;DHT22;11930;53.076;18.250;2022-07-23T01:54:43;15.80;99.90
23507;DHT22;11930;53.076;18.250;2022-07-23T01:57:10;15.70;99.90
23507;DHT22;11930;53.076;18.250;2022-07-23T01:59:37;15.70;99.90
23507;DHT22;11930;53.076;18.250;2022-07-23T02:02:05;15.60;99.90
23507;DHT22;11930;53.076;18.250;2022-07-23T02:04:31;15.60;99.90
23507;DHT22;11930;53.076;18.250;2022-07-23T02:07:01;15.60;99.90
23507;DHT22;11930;53.076;18.250;2022-07-23T02:09:27;15.60;99.90
23507;DHT22;11930;53.076;18.250;2022-07-23T02:11:54;15.50;99.90
23507;DHT22;11930;53.076;18.250;2022-07-23T02:14:19;15.50;99.90
23507;DHT22;11930;53.076;18.250;2022-07-23T02:16:45;15.40;99.90
23507;DHT22;11930;53.076;18.250;2022-07-23T02:19:12;15.40;99.90
23507;DHT22;11930;53.076;18.250;2022-07-23T02:21:38;15.40;99.90
23507;DHT22;11930;53.076;18.250;2022-07-23T02:24:04;15.30;99.90
23507;DHT22;11930;53.076;18.250;2022-07-23T02:26:31;15.30;99.90
23507;DHT22;11930;53.076;18.250;2022-07-23T02:29:03;15.30;99.90
23507;DHT22;11930;53.076;18.250;2022-07-23T02:31:30;15.30;99.90
23507;DHT22;11930;53.076;18.250;2022-07-23T02:33:57;15.20;99.90
23507;DHT22;11930;53.076;18.250;2022-07-23T02:36:23;15.20;99.90
23507;DHT22;11930;53.076;18.250;2022-07-23T02:38:51;15.20;99.90
23507;DHT22;11930;53.076;18.250;2022-07-23T02:41:17;15.20;99.90
23507;DHT22;11930;53.076;18.250;2022-07-23T02:43:43;15.20;99.90
23507;DHT22;11930;53.076;18.250;2022-07-23T02:46:11;15.20;99.90
23507;DHT22;11930;53.076;18.250;2022-07-23T02:48:38;15.20;99.90
23507;DHT22;11930;53.076;18.250;2022-07-23T02:51:04;15.20;99.90
23507;DHT22;11930;53.076;18.250;2022-07-23T02:53:36;15.20;99.90
23507;DHT22;11930;53.076;18.250;2022-07-23T02:56:03;15.20;99.90
23507;DHT22;11930;53.076;18.250;2022-07-23T02:58:29;15.20;99.90
23507;DHT22;11930;53.076;18.250;2022-07-23T03:00:55;15.20;99.90
23507;DHT22;11930;53.076;18.250;2022-07-23T03:03:21;15.10;99.90
23507;DHT22;11930;53.076;18.250;2022-07-23T03:05:47;15.10;99.90
23507;DHT22;11930;53.076;18.250;2022-07-23T03:08:14;15.10;99.90
23507;DHT22;11930;53.076;18.250;2022-07-23T03:10:42;15.10;99.90
23507;DHT22;11930;53.076;18.250;2022-07-23T03:13:08;15.20;99.90
23507;DHT22;11930;53.076;18.250;2022-07-23T03:15:35;15.20;99.90
23507;DHT22;11930;53.076;18.250;2022-07-23T03:18:01;15.20;99.90
23507;DHT22;11930;53.076;18.250;2022-07-23T03:20:29;15.20;99.90
23507;DHT22;11930;53.076;18.250;2022-07-23T03:22:55;15.30;99.90
23507;DHT22;11930;53.076;18.250;2022-07-23T03:25:21;15.30;99.90
23507;DHT22;11930;53.076;18.250;2022-07-23T03:27:47;15.40;99.90
23507;DHT22;11930;53.076;18.250;2022-07-23T03:30:13;15.50;99.90
23507;DHT22;11930;53.076;18.250;2022-07-23T03:32:39;15.60;99.90
23507;DHT22;11930;53.076;18.250;2022-07-23T03:35:05;15.70;99.90
23507;DHT22;11930;53.076;18.250;2022-07-23T03:37:32;15.80;99.90
23507;DHT22;11930;53.076;18.250;2022-07-23T03:39:59;16.10;99.90
23507;DHT22;11930;53.076;18.250;2022-07-23T03:42:25;16.40;99.90
23507;DHT22;11930;53.076;18.250;2022-07-23T03:44:52;16.50;99.90
23507;DHT22;11930;53.076;18.250;2022-07-23T03:47:18;16.70;99.90
23507;DHT22;11930;53.076;18.250;2022-07-23T03:49:48;16.90;99.90
23507;DHT22;11930;53.076;18.250;2022-07-23T03:52:14;17.00;99.90
23507;DHT22;11930;53.076;18.250;2022-07-23T03:54:40;17.20;99.90
23507;DHT22;11930;53.076;18.250;2022-07-23T03:57:06;17.40;99.90
23507;DHT22;11930;53.076;18.250;2022-07-23T03:59:32;17.60;99.90
23507;DHT22;11930;53.076;18.250;2022-07-23T04:01:59;17.70;99.90
23507;DHT22;11930;53.076;18.250;2022-07-23T04:04:25;18.00;99.90
23507;DHT22;11930;53.076;18.250;2022-07-23T04:06:51;18.40;99.90
23507;DHT22;11930;53.076;18.250;2022-07-23T04:09:18;19.10;99.90
23507;DHT22;11930;53.076;18.250;2022-07-23T04:11:45;19.90;99.90
23507;DHT22;11930;53.076;18.250;2022-07-23T04:14:11;20.50;99.90
23507;DHT22;11930;53.076;18.250;2022-07-23T04:16:37;21.30;99.90
23507;DHT22;11930;53.076;18.250;2022-07-23T04:19:04;22.10;99.90
23507;DHT22;11930;53.076;18.250;2022-07-23T04:21:34;22.80;99.90
23507;DHT22;11930;53.076;18.250;2022-07-23T04:24:01;23.70;99.90
23507;DHT22;11930;53.076;18.250;2022-07-23T04:26:27;24.80;99.90
23507;DHT22;11930;53.076;18.250;2022-07-23T04:28:53;25.60;99.90
23507;DHT22;11930;53.076;18.250;2022-07-23T04:31:19;26.60;99.90
23507;DHT22;11930;53.076;18.250;2022-07-23T04:33:45;27.00;99.90
23507;DHT22;11930;53.076;18.250;2022-07-23T04:36:11;27.20;99.90
23507;DHT22;11930;53.076;18.250;2022-07-23T04:38:37;27.40;99.90
23507;DHT22;11930;53.076;18.250;2022-07-23T04:41:04;28.20;97.30
23507;DHT22;11930;53.076;18.250;2022-07-23T04:43:30;28.40;94.80
23507;DHT22;11930;53.076;18.250;2022-07-23T04:45:57;28.70;92.40
23507;DHT22;11930;53.076;18.250;2022-07-23T04:48:23;28.10;93.70
23507;DHT22;11930;53.076;18.250;2022-07-23T04:50:55;28.60;92.50
23507;DHT22;11930;53.076;18.250;2022-07-23T04:53:27;28.90;88.90
23507;DHT22;11930;53.076;18.250;2022-07-23T04:55:57;29.20;83.90
23507;DHT22;11930;53.076;18.250;2022-07-23T04:58:23;28.20;89.50
23507;DHT22;11930;53.076;18.250;2022-07-23T05:00:49;27.70;92.80
23507;DHT22;11930;53.076;18.250;2022-07-23T05:03:17;27.00;97.00
23507;DHT22;11930;53.076;18.250;2022-07-23T05:05:45;27.00;99.30
23507;DHT22;11930;53.076;18.250;2022-07-23T05:08:15;26.80;99.50
23507;DHT22;11930;53.076;18.250;2022-07-23T05:10:43;26.10;99.90
23507;DHT22;11930;53.076;18.250;2022-07-23T05:13:09;25.70;99.90
23507;DHT22;11930;53.076;18.250;2022-07-23T05:15:35;24.90;99.90
23507;DHT22;11930;53.076;18.250;2022-07-23T05:18:01;24.20;99.90
23507;DHT22;11930;53.076;18.250;2022-07-23T05:20:28;24.30;99.90
23507;DHT22;11930;53.076;18.250;2022-07-23T05:22:54;24.80;99.90
23507;DHT22;11930;53.076;18.250;2022-07-23T05:25:20;25.30;99.90
23507;DHT22;11930;53.076;18.250;2022-07-23T05:27:46;25.20;99.90
23507;DHT22;11930;53.076;18.250;2022-07-23T05:30:12;25.10;99.90
23507;DHT22;11930;53.076;18.250;2022-07-23T05:32:41;25.20;99.90
23507;DHT22;11930;53.076;18.250;2022-07-23T05:35:12;25.40;99.90
23507;DHT22;11930;53.076;18.250;2022-07-23T05:37:45;26.20;99.90
23507;DHT22;11930;53.076;18.250;2022-07-23T05:40:12;26.50;99.90
23507;DHT22;11930;53.076;18.250;2022-07-23T05:42:39;26.60;99.90
23507;DHT22;11930;53.076;18.250;2022-07-23T05:45:06;26.60;99.90
23507;DHT22;11930;53.076;18.250;2022-07-23T05:47:46;25.80;99.90
23507;DHT22;11930;53.076;18.250;2022-07-23T05:50:15;25.00;99.90
23507;DHT22;11930;53.076;18.250;2022-07-23T05:52:46;24.70;99.90
23507;DHT22;11930;53.076;18.250;2022-07-23T05:55:39;24.30;99.90
23507;DHT22;11930;53.076;18.250;2022-07-23T05:58:05;24.10;99.90
23507;DHT22;11930;53.076;18.250;2022-07-23T06:00:31;24.10;99.90
23507;DHT22;11930;53.076;18.250;2022-07-23T06:02:58;23.90;99.90
23507;DHT22;11930;53.076;18.250;2022-07-23T06:05:25;23.80;99.90
23507;DHT22;11930;53.076;18.250;2022-07-23T06:07:54;23.80;99.90
23507;DHT22;11930;53.076;18.250;2022-07-23T06:10:22;23.60;99.90
23507;DHT22;11930;53.076;18.250;2022-07-23T06:12:48;23.60;99.90
23507;DHT22;11930;53.076;18.250;2022-07-23T06:15:14;23.60;99.90
23507;DHT22;11930;53.076;18.250;2022-07-23T06:17:40;23.80;99.90
23507;DHT22;11930;53.076;18.250;2022-07-23T06:20:07;23.80;99.90
23507;DHT22;11930;53.076;18.250;2022-07-23T06:22:36;23.80;99.90
23507;DHT22;11930;53.076;18.250;2022-07-23T06:25:03;24.00;99.90
23507;DHT22;11930;53.076;18.250;2022-07-23T06:27:29;24.00;99.90
23507;DHT22;11930;53.076;18.250;2022-07-23T06:29:55;24.20;99.90
23507;DHT22;11930;53.076;18.250;2022-07-23T06:32:21;24.40;99.90
23507;DHT22;11930;53.076;18.250;2022-07-23T06:34:47;24.40;99.90
23507;DHT22;11930;53.076;18.250;2022-07-23T06:37:13;24.50;99.90
23507;DHT22;11930;53.076;18.250;2022-07-23T06:39:39;24.80;99.90
23507;DHT22;11930;53.076;18.250;2022-07-23T06:42:05;25.20;99.90
23507;DHT22;11930;53.076;18.250;2022-07-23T06:44:44;26.00;99.90
23507;DHT22;11930;53.076;18.250;2022-07-23T06:47:10;27.10;99.90
23507;DHT22;11930;53.076;18.250;2022-07-23T06:49:36;28.40;99.90
23507;DHT22;11930;53.076;18.250;2022-07-23T06:52:03;29.20;95.90
23507;DHT22;11930;53.076;18.250;2022-07-23T06:54:29;30.30;91.60
23507;DHT22;11930;53.076;18.250;2022-07-23T06:56:54;31.10;84.00
23507;DHT22;11930;53.076;18.250;2022-07-23T06:59:20;31.90;77.70
23507;DHT22;11930;53.076;18.250;2022-07-23T07:01:46;32.60;71.30
23507;DHT22;11930;53.076;18.250;2022-07-23T07:04:12;33.10;66.60
23507;DHT22;11930;53.076;18.250;2022-07-23T07:06:38;33.40;65.50
23507;DHT22;11930;53.076;18.250;2022-07-23T07:09:04;33.90;62.40
23507;DHT22;11930;53.076;18.250;2022-07-23T07:11:30;34.60;58.10
23507;DHT22;11930;53.076;18.250;2022-07-23T07:13:56;34.70;58.50
23507;DHT22;11930;53.076;18.250;2022-07-23T07:16:22;35.40;55.60
23507;DHT22;11930;53.076;18.250;2022-07-23T07:18:48;35.90;52.90
23507;DHT22;11930;53.076;18.250;2022-07-23T07:21:14;35.90;53.00
23507;DHT22;11930;53.076;18.250;2022-07-23T07:23:40;35.90;53.70
23507;DHT22;11930;53.076;18.250;2022-07-23T07:26:06;36.40;51.90
23507;DHT22;11930;53.076;18.250;2022-07-23T07:28:32;37.50;48.10
23507;DHT22;11930;53.076;18.250;2022-07-23T07:30:57;36.50;51.50
23507;DHT22;11930;53.076;18.250;2022-07-23T07:33:23;36.50;50.30
23507;DHT22;11930;53.076;18.250;2022-07-23T07:35:50;37.00;49.00
23507;DHT22;11930;53.076;18.250;2022-07-23T07:38:15;37.40;48.40
23507;DHT22;11930;53.076;18.250;2022-07-23T07:40:41;37.00;48.30
23507;DHT22;11930;53.076;18.250;2022-07-23T07:43:07;37.60;47.60
23507;DHT22;11930;53.076;18.250;2022-07-23T07:45:33;38.90;45.10
23507;DHT22;11930;53.076;18.250;2022-07-23T07:47:59;38.60;45.40
23507;DHT22;11930;53.076;18.250;2022-07-23T07:50:25;38.70;45.50
23507;DHT22;11930;53.076;18.250;2022-07-23T07:52:51;37.60;45.00
23507;DHT22;11930;53.076;18.250;2022-07-23T07:55:17;37.40;45.50
23507;DHT22;11930;53.076;18.250;2022-07-23T07:57:43;37.30;45.40
23507;DHT22;11930;53.076;18.250;2022-07-23T08:00:10;37.20;45.70
23507;DHT22;11930;53.076;18.250;2022-07-23T08:02:50;37.20;46.60
23507;DHT22;11930;53.076;18.250;2022-07-23T08:05:24;37.40;45.80
23507;DHT22;11930;53.076;18.250;2022-07-23T08:07:51;36.90;45.50
23507;DHT22;11930;53.076;18.250;2022-07-23T08:10:17;36.70;46.90
23507;DHT22;11930;53.076;18.250;2022-07-23T08:12:45;37.30;46.00
23507;DHT22;11930;53.076;18.250;2022-07-23T08:15:13;37.90;44.60
23507;DHT22;11930;53.076;18.250;2022-07-23T08:17:40;37.00;45.70
23507;DHT22;11930;53.076;18.250;2022-07-23T08:20:07;36.80;47.00
23507;DHT22;11930;53.076;18.250;2022-07-23T08:25:28;37.70;44.30
23507;DHT22;11930;53.076;18.250;2022-07-23T08:27:55;37.90;44.10
23507;DHT22;11930;53.076;18.250;2022-07-23T08:30:22;37.00;45.10
23507;DHT22;11930;53.076;18.250;2022-07-23T08:35:22;37.10;46.70
23507;DHT22;11930;53.076;18.250;2022-07-23T08:37:49;36.20;46.70
23507;DHT22;11930;53.076;18.250;2022-07-23T08:40:15;36.20;46.70
23507;DHT22;11930;53.076;18.250;2022-07-23T08:42:41;36.20;46.90
23507;DHT22;11930;53.076;18.250;2022-07-23T08:45:08;36.20;47.10
23507;DHT22;11930;53.076;18.250;2022-07-23T08:47:36;35.90;47.10
23507;DHT22;11930;53.076;18.250;2022-07-23T08:50:03;35.20;48.70
23507;DHT22;11930;53.076;18.250;2022-07-23T08:52:30;35.10;49.90
23507;DHT22;11930;53.076;18.250;2022-07-23T08:54:57;35.40;49.40
23507;DHT22;11930;53.076;18.250;2022-07-23T08:57:23;35.30;47.70
23507;DHT22;11930;53.076;18.250;2022-07-23T08:59:49;34.70;49.50
23507;DHT22;11930;53.076;18.250;2022-07-23T09:02:15;34.70;49.90
23507;DHT22;11930;53.076;18.250;2022-07-23T09:04:41;35.10;50.30
23507;DHT22;11930;53.076;18.250;2022-07-23T09:07:08;34.80;50.40
23507;DHT22;11930;53.076;18.250;2022-07-23T09:09:34;34.50;49.50
23507;DHT22;11930;53.076;18.250;2022-07-23T09:12:08;33.90;52.00
23507;DHT22;11930;53.076;18.250;2022-07-23T09:14:42;33.30;52.80
23507;DHT22;11930;53.076;18.250;2022-07-23T09:17:13;33.10;54.00
23507;DHT22;11930;53.076;18.250;2022-07-23T09:19:41;33.00;53.20
23507;DHT22;11930;53.076;18.250;2022-07-23T09:22:17;32.70;54.40
23507;DHT22;11930;53.076;18.250;2022-07-23T09:27:55;31.20;55.90
23507;DHT22;11930;53.076;18.250;2022-07-23T09:30:26;30.70;57.00
23507;DHT22;11930;53.076;18.250;2022-07-23T09:33:14;30.40;57.50
23507;DHT22;11930;53.076;18.250;2022-07-23T09:35:51;30.10;58.20
23507;DHT22;11930;53.076;18.250;2022-07-23T09:38:20;30.00;58.90
23507;DHT22;11930;53.076;18.250;2022-07-23T09:41:08;29.80;60.10
23507;DHT22;11930;53.076;18.250;2022-07-23T09:43:35;29.40;62.00
23507;DHT22;11930;53.076;18.250;2022-07-23T09:46:23;29.10;62.00
23507;DHT22;11930;53.076;18.250;2022-07-23T09:48:54;28.50;63.70
23507;DHT22;11930;53.076;18.250;2022-07-23T09:51:23;27.90;66.60
23507;DHT22;11930;53.076;18.250;2022-07-23T09:54:04;27.30;69.10
23507;DHT22;11930;53.076;18.250;2022-07-23T09:56:31;26.90;69.70
23507;DHT22;11930;53.076;18.250;2022-07-23T09:58:59;26.60;71.80
23507;DHT22;11930;53.076;18.250;2022-07-23T10:01:31;26.40;72.80
23507;DHT22;11930;53.076;18.250;2022-07-23T10:03:59;26.20;74.00
23507;DHT22;11930;53.076;18.250;2022-07-23T10:06:48;26.20;76.00
23507;DHT22;11930;53.076;18.250;2022-07-23T10:09:38;26.00;78.40
23507;DHT22;11930;53.076;18.250;2022-07-23T10:12:27;25.80;82.00
23507;DHT22;11930;53.076;18.250;2022-07-23T10:15:20;25.70;89.20
23507;DHT22;11930;53.076;18.250;2022-07-23T10:17:48;25.50;98.90
23507;DHT22;11930;53.076;18.250;2022-07-23T10:20:14;25.30;99.90
23507;DHT22;11930;53.076;18.250;2022-07-23T10:31:05;23.90;99.90
23507;DHT22;11930;53.076;18.250;2022-07-23T10:34:11;23.60;99.90
23507;DHT22;11930;53.076;18.250;2022-07-23T10:36:57;23.30;99.90
23507;DHT22;11930;53.076;18.250;2022-07-23T10:39:32;23.00;99.90
23507;DHT22;11930;53.076;18.250;2022-07-23T10:42:15;22.80;99.90
23507;DHT22;11930;53.076;18.250;2022-07-23T10:44:45;22.60;99.90
23507;DHT22;11930;53.076;18.250;2022-07-23T10:47:25;22.50;99.90
23507;DHT22;11930;53.076;18.250;2022-07-23T10:50:28;22.40;99.90
23507;DHT22;11930;53.076;18.250;2022-07-23T10:53:16;22.30;99.90
23507;DHT22;11930;53.076;18.250;2022-07-23T10:55:48;22.30;99.90
23507;DHT22;11930;53.076;18.250;2022-07-23T10:58:47;22.40;99.90
23507;DHT22;11930;53.076;18.250;2022-07-23T11:01:36;22.40;99.90
23507;DHT22;11930;53.076;18.250;2022-07-23T11:04:04;22.50;99.90
23507;DHT22;11930;53.076;18.250;2022-07-23T11:09:29;22.40;99.90
23507;DHT22;11930;53.076;18.250;2022-07-23T11:15:11;22.20;99.90
23507;DHT22;11930;53.076;18.250;2022-07-23T11:22:38;22.00;99.90
23507;DHT22;11930;53.076;18.250;2022-07-23T11:25:05;22.00;99.90
23507;DHT22;11930;53.076;18.250;2022-07-23T11:27:42;22.10;99.90
23507;DHT22;11930;53.076;18.250;2022-07-23T11:30:10;22.20;99.90
23507;DHT22;11930;53.076;18.250;2022-07-23T11:32:40;22.30;99.90
23507;DHT22;11930;53.076;18.250;2022-07-23T11:35:26;22.50;99.90
23507;DHT22;11930;53.076;18.250;2022-07-23T11:38:02;22.70;99.90
23507;DHT22;11930;53.076;18.250;2022-07-23T11:40:29;23.00;99.90
23507;DHT22;11930;53.076;18.250;2022-07-23T11:43:04;23.20;99.90
23507;DHT22;11930;53.076;18.250;2022-07-23T11:45:40;23.40;99.90
23507;DHT22;11930;53.076;18.250;2022-07-23T11:48:15;23.60;99.90
23507;DHT22;11930;53.076;18.250;2022-07-23T11:50:41;23.60;99.90
23507;DHT22;11930;53.076;18.250;2022-07-23T11:53:07;23.70;99.90
23507;DHT22;11930;53.076;18.250;2022-07-23T11:55:33;23.80;99.90
23507;DHT22;11930;53.076;18.250;2022-07-23T11:57:59;23.80;99.90
23507;DHT22;11930;53.076;18.250;2022-07-23T12:00:28;23.70;99.90
23507;DHT22;11930;53.076;18.250;2022-07-23T12:02:58;23.70;99.90
23507;DHT22;11930;53.076;18.250;2022-07-23T12:05:31;23.80;99.90
23507;DHT22;11930;53.076;18.250;2022-07-23T12:07:58;23.80;99.90
23507;DHT22;11930;53.076;18.250;2022-07-23T12:12:57;23.80;99.90
23507;DHT22;11930;53.076;18.250;2022-07-23T12:15:48;23.80;99.90
23507;DHT22;11930;53.076;18.250;2022-07-23T12:18:18;23.90;99.90
23507;DHT22;11930;53.076;18.250;2022-07-23T12:20:47;24.00;99.90
23507;DHT22;11930;53.076;18.250;2022-07-23T12:23:16;24.10;99.90
23507;DHT22;11930;53.076;18.250;2022-07-23T12:25:44;24.30;99.90
23507;DHT22;11930;53.076;18.250;2022-07-23T12:28:15;24.40;99.90
23507;DHT22;11930;53.076;18.250;2022-07-23T12:30:46;24.30;99.90
23507;DHT22;11930;53.076;18.250;2022-07-23T12:33:15;24.20;99.90
23507;DHT22;11930;53.076;18.250;2022-07-23T12:35:46;24.10;99.90
23507;DHT22;11930;53.076;18.250;2022-07-23T12:38:17;24.00;99.90
23507;DHT22;11930;53.076;18.250;2022-07-23T12:45:50;23.30;99.90
23507;DHT22;11930;53.076;18.250;2022-07-23T12:51:05;22.90;99.90
23507;DHT22;11930;53.076;18.250;2022-07-23T12:53:45;22.70;99.90
23507;DHT22;11930;53.076;18.250;2022-07-23T12:56:26;22.60;99.90
23507;DHT22;11930;53.076;18.250;2022-07-23T12:58:55;22.60;99.90
23507;DHT22;11930;53.076;18.250;2022-07-23T13:06:22;22.90;99.90
23507;DHT22;11930;53.076;18.250;2022-07-23T13:08:48;22.90;99.90
23507;DHT22;11930;53.076;18.250;2022-07-23T13:11:14;23.10;99.90
23507;DHT22;11930;53.076;18.250;2022-07-23T13:13:41;23.40;99.90
23507;DHT22;11930;53.076;18.250;2022-07-23T13:16:07;23.70;99.90
23507;DHT22;11930;53.076;18.250;2022-07-23T13:18:33;24.10;99.90
23507;DHT22;11930;53.076;18.250;2022-07-23T13:20:59;24.30;99.90
23507;DHT22;11930;53.076;18.250;2022-07-23T13:23:25;24.40;99.90
23507;DHT22;11930;53.076;18.250;2022-07-23T13:25:52;24.30;99.90
23507;DHT22;11930;53.076;18.250;2022-07-23T13:28:19;24.40;99.90
23507;DHT22;11930;53.076;18.250;2022-07-23T13:30:47;24.60;99.90
23507;DHT22;11930;53.076;18.250;2022-07-23T13:33:19;24.80;99.90
23507;DHT22;11930;53.076;18.250;2022-07-23T13:35:46;24.80;99.90
23507;DHT22;11930;53.076;18.250;2022-07-23T13:38:12;24.90;99.90
23507;DHT22;11930;53.076;18.250;2022-07-23T13:40:41;25.00;99.90
23507;DHT22;11930;53.076;18.250;2022-07-23T13:43:10;25.00;99.90
23507;DHT22;11930;53.076;18.250;2022-07-23T13:45:37;25.00;99.90
23507;DHT22;11930;53.076;18.250;2022-07-23T13:48:04;25.00;99.90
23507;DHT22;11930;53.076;18.250;2022-07-23T13:50:30;25.00;99.90
23507;DHT22;11930;53.076;18.250;2022-07-23T13:52:56;24.90;99.90
23507;DHT22;11930;53.076;18.250;2022-07-23T13:55:22;24.80;99.90
23507;DHT22;11930;53.076;18.250;2022-07-23T13:57:48;24.80;99.90
23507;DHT22;11930;53.076;18.250;2022-07-23T14:00:14;24.80;99.90
23507;DHT22;11930;53.076;18.250;2022-07-23T14:02:40;24.80;99.90
23507;DHT22;11930;53.076;18.250;2022-07-23T14:05:09;24.90;99.90
23507;DHT22;11930;53.076;18.250;2022-07-23T14:07:36;25.00;99.90
23507;DHT22;11930;53.076;18.250;2022-07-23T14:10:03;25.10;99.90
23507;DHT22;11930;53.076;18.250;2022-07-23T14:12:30;25.20;99.90
23507;DHT22;11930;53.076;18.250;2022-07-23T14:14:56;25.00;99.90
23507;DHT22;11930;53.076;18.250;2022-07-23T14:17:23;24.90;99.90
23507;DHT22;11930;53.076;18.250;2022-07-23T14:19:49;24.90;99.90
23507;DHT22;11930;53.076;18.250;2022-07-23T14:22:16;24.80;99.90
23507;DHT22;11930;53.076;18.250;2022-07-23T14:24:42;24.70;99.90
23507;DHT22;11930;53.076;18.250;2022-07-23T14:27:08;24.60;99.90
23507;DHT22;11930;53.076;18.250;2022-07-23T14:29:35;24.70;99.90
23507;DHT22;11930;53.076;18.250;2022-07-23T14:32:01;24.60;99.90
23507;DHT22;11930;53.076;18.250;2022-07-23T14:34:28;24.30;99.90
23507;DHT22;11930;53.076;18.250;2022-07-23T14:36:54;24.30;99.90
23507;DHT22;11930;53.076;18.250;2022-07-23T14:39:20;24.30;99.90
23507;DHT22;11930;53.076;18.250;2022-07-23T14:41:46;24.10;99.90
23507;DHT22;11930;53.076;18.250;2022-07-23T14:44:12;24.20;99.90
23507;DHT22;11930;53.076;18.250;2022-07-23T14:46:38;24.20;99.90
23507;DHT22;11930;53.076;18.250;2022-07-23T14:49:04;24.20;99.90
23507;DHT22;11930;53.076;18.250;2022-07-23T14:51:30;24.10;99.90
23507;DHT22;11930;53.076;18.250;2022-07-23T14:53:56;24.10;99.90
23507;DHT22;11930;53.076;18.250;2022-07-23T14:56:23;23.90;99.90
23507;DHT22;11930;53.076;18.250;2022-07-23T14:58:48;23.80;99.90
23507;DHT22;11930;53.076;18.250;2022-07-23T15:01:14;23.60;99.90
23507;DHT22;11930;53.076;18.250;2022-07-23T15:03:41;23.50;99.90
23507;DHT22;11930;53.076;18.250;2022-07-23T15:06:07;23.40;99.90
23507;DHT22;11930;53.076;18.250;2022-07-23T15:08:33;23.60;99.90
23507;DHT22;11930;53.076;18.250;2022-07-23T15:10:59;23.70;99.90
23507;DHT22;11930;53.076;18.250;2022-07-23T15:13:25;23.80;99.90
23507;DHT22;11930;53.076;18.250;2022-07-23T15:15:51;23.80;99.90
23507;DHT22;11930;53.076;18.250;2022-07-23T15:18:17;23.90;99.90
23507;DHT22;11930;53.076;18.250;2022-07-23T15:20:43;23.80;99.90
23507;DHT22;11930;53.076;18.250;2022-07-23T15:23:09;23.80;99.90
23507;DHT22;11930;53.076;18.250;2022-07-23T15:25:35;23.60;99.90
23507;DHT22;11930;53.076;18.250;2022-07-23T15:28:01;23.50;99.90
23507;DHT22;11930;53.076;18.250;2022-07-23T15:30:28;23.30;99.90
23507;DHT22;11930;53.076;18.250;2022-07-23T15:32:54;23.20;99.90
23507;DHT22;11930;53.076;18.250;2022-07-23T15:35:20;23.10;99.90
23507;DHT22;11930;53.076;18.250;2022-07-23T15:37:46;23.10;99.90
23507;DHT22;11930;53.076;18.250;2022-07-23T15:40:12;23.10;99.90
23507;DHT22;11930;53.076;18.250;2022-07-23T15:42:38;23.10;99.90
23507;DHT22;11930;53.076;18.250;2022-07-23T15:45:05;22.90;99.90
23507;DHT22;11930;53.076;18.250;2022-07-23T15:47:31;22.90;99.90
23507;DHT22;11930;53.076;18.250;2022-07-23T15:49:57;22.80;99.90
23507;DHT22;11930;53.076;18.250;2022-07-23T15:52:23;22.70;99.90
23507;DHT22;11930;53.076;18.250;2022-07-23T15:54:49;22.70;99.90
23507;DHT22;11930;53.076;18.250;2022-07-23T15:57:15;22.60;99.90
23507;DHT22;11930;53.076;18.250;2022-07-23T15:59:41;22.60;99.90
23507;DHT22;11930;53.076;18.250;2022-07-23T16:02:08;22.70;99.90
23507;DHT22;11930;53.076;18.250;2022-07-23T16:04:34;22.90;99.90
23507;DHT22;11930;53.076;18.250;2022-07-23T16:07:00;23.00;99.90